Time;durP1;ratioP1;P1;durP2;ratioP2;P2;SDS_P1;SDS_P2;PMS_P1;PMS_P2;Temp;Humidity;BMP_temperature;BMP_pressure;BME280_temperature;BME280_humidity;BME280_pressure;Samples;Min_cycle;Max_cycle;Signal;HPM_P1;HPM_P2
2022/09/02 00:01:38;;;;;;;4.27;3.83;;;24.70;49.10;;;;;;5007958;28;20189;-49
2022/09/02 00:04:08;;;;;;;4.93;4.53;;;24.70;48.90;;;;;;5009624;28;20228;-47
2022/09/02 00:06:35;;;;;;;4.23;3.93;;;24.80;48.60;;;;;;5005339;28;20437;-46
2022/09/02 00:09:02;;;;;;;4.77;4.47;;;24.70;49.20;;;;;;5006871;28;20473;-45
2022/09/02 00:11:30;;;;;;;4.17;3.90;;;24.80;48.90;;;;;;5010244;28;20538;-46
2022/09/02 00:13:57;;;;;;;5.70;4.67;;;24.70;49.00;;;;;;5006218;28;20473;-47
2022/09/02 00:16:24;;;;;;;4.60;4.20;;;24.70;49.10;;;;;;5004164;28;20886;-48
2022/09/02 00:18:50;;;;;;;4.23;3.83;;;24.60;49.10;;;;;;5006099;28;20441;-46
2022/09/02 00:21:17;;;;;;;4.17;3.87;;;24.50;49.30;;;;;;5003399;28;20463;-46
2022/09/02 00:23:44;;;;;;;10.07;3.97;;;24.50;49.50;;;;;;4999561;28;20448;-45
2022/09/02 00:26:12;;;;;;;4.77;4.40;;;24.50;49.40;;;;;;5005402;28;20446;-45
2022/09/02 00:28:38;;;;;;;7.13;4.50;;;24.40;49.50;;;;;;5002171;28;20501;-45
2022/09/02 00:31:04;;;;;;;4.70;4.40;;;24.50;49.50;;;;;;5007805;28;20472;-49
2022/09/02 00:33:30;;;;;;;4.63;4.23;;;24.40;49.60;;;;;;5005774;28;20476;-45
2022/09/02 00:36:01;;;;;;;4.13;3.77;;;24.40;49.60;;;;;;5004939;28;20610;-45
2022/09/02 00:38:28;;;;;;;4.33;3.93;;;24.40;49.60;;;;;;5008974;28;20476;-47
2022/09/02 00:40:54;;;;;;;4.40;4.10;;;24.40;49.70;;;;;;5010869;28;20465;-47
2022/09/02 00:44:03;;;;;;;4.80;4.50;;;24.30;49.60;;;;;;5024394;28;21020;-45
2022/09/02 00:46:31;;;;;;;5.10;4.70;;;24.50;49.30;;;;;;5006912;28;20237;-45
2022/09/02 00:49:23;;;;;;;4.70;4.30;;;24.50;49.20;;;;;;5007725;28;20441;-45
2022/09/02 00:51:57;;;;;;;5.33;4.17;;;24.60;49.70;;;;;;5008987;28;20484;-46
2022/09/02 00:54:25;;;;;;;4.03;3.83;;;24.50;49.10;;;;;;5004083;28;20445;-47
2022/09/02 00:56:53;;;;;;;4.40;4.00;;;24.50;49.00;;;;;;5000897;28;20487;-48
2022/09/02 00:59:42;;;;;;;4.57;4.27;;;24.40;49.00;;;;;;5000706;28;20467;-46
2022/09/02 01:02:08;;;;;;;4.40;4.10;;;24.40;49.30;;;;;;5000266;28;20461;-45
2022/09/02 01:04:34;;;;;;;4.53;4.13;;;24.30;49.40;;;;;;5011302;28;20928;-46
2022/09/02 01:07:02;;;;;;;4.73;4.33;;;24.20;49.20;;;;;;5009204;28;20500;-48
2022/09/02 01:09:27;;;;;;;4.57;4.27;;;24.20;49.50;;;;;;5008627;28;20198;-46
2022/09/02 01:11:54;;;;;;;4.50;4.10;;;24.10;49.80;;;;;;5011417;28;20451;-47
2022/09/02 01:14:20;;;;;;;5.20;4.80;;;24.10;49.80;;;;;;5005614;28;20190;-49
2022/09/02 01:16:50;;;;;;;5.17;4.57;;;24.10;49.40;;;;;;5009658;28;20979;-45
2022/09/02 01:19:21;;;;;;;4.37;4.07;;;24.10;49.50;;;;;;5008271;28;20445;-45
2022/09/02 01:21:53;;;;;;;4.13;3.73;;;24.10;49.70;;;;;;5006796;28;20444;-45
2022/09/02 01:24:20;;;;;;;4.00;3.70;;;24.00;50.00;;;;;;5010890;28;20470;-46
2022/09/02 01:26:46;;;;;;;4.43;4.13;;;24.10;49.80;;;;;;5009609;28;20870;-49
2022/09/02 01:29:12;;;;;;;3.77;3.47;;;24.10;49.40;;;;;;5015043;28;20445;-45
2022/09/02 01:31:38;;;;;;;4.80;4.33;;;24.00;49.70;;;;;;5008688;28;20815;-46
2022/09/02 01:34:05;;;;;;;8.83;4.10;;;23.90;49.50;;;;;;5009926;28;20620;-46
2022/09/02 01:36:32;;;;;;;6.17;4.47;;;24.00;49.30;;;;;;5009772;28;20579;-45
2022/09/02 01:38:57;;;;;;;4.40;4.10;;;23.90;48.90;;;;;;5003897;28;20445;-46
2022/09/02 01:41:23;;;;;;;5.00;4.50;;;23.80;48.80;;;;;;4996250;28;20731;-45
2022/09/02 01:43:49;;;;;;;4.60;4.20;;;23.70;49.40;;;;;;4998675;28;20706;-46
2022/09/02 01:46:14;;;;;;;4.63;4.23;;;23.80;49.30;;;;;;4996958;28;20190;-45
2022/09/02 01:48:40;;;;;;;5.10;4.60;;;23.60;49.60;;;;;;5007556;28;20194;-45
2022/09/02 01:51:06;;;;;;;4.57;4.27;;;23.60;49.10;;;;;;5013574;28;20201;-45
2022/09/02 01:53:33;;;;;;;4.60;4.20;;;23.50;50.10;;;;;;5011492;28;20269;-45
2022/09/02 01:55:59;;;;;;;4.73;4.33;;;23.50;50.10;;;;;;5009576;28;20578;-45
2022/09/02 01:58:25;;;;;;;4.50;4.10;;;23.40;50.50;;;;;;5010303;28;20472;-45
2022/09/02 02:00:51;;;;;;;3.67;3.47;;;23.60;50.00;;;;;;5009379;28;20197;-47
2022/09/02 02:03:18;;;;;;;4.33;4.03;;;23.60;50.10;;;;;;5017989;28;20422;-47
2022/09/02 02:05:43;;;;;;;4.57;4.00;;;23.60;50.20;;;;;;5015385;28;20198;-46
2022/09/02 02:08:09;;;;;;;4.30;4.00;;;23.70;49.80;;;;;;5019707;28;20451;-46
2022/09/02 02:10:35;;;;;;;4.70;4.30;;;23.60;49.90;;;;;;5008514;28;20193;-45
2022/09/02 02:13:01;;;;;;;5.17;3.80;;;23.60;50.00;;;;;;5010475;28;20202;-46
2022/09/02 02:15:27;;;;;;;4.57;4.27;;;23.70;49.70;;;;;;5006699;28;20487;-45
2022/09/02 02:17:52;;;;;;;4.43;4.03;;;23.70;49.60;;;;;;5017700;28;20668;-46
2022/09/02 02:20:20;;;;;;;4.20;4.00;;;23.60;49.80;;;;;;5011795;28;20423;-45
2022/09/02 02:22:46;;;;;;;4.47;4.17;;;23.60;49.90;;;;;;5018657;28;20215;-46
2022/09/02 02:25:14;;;;;;;4.03;3.73;;;23.60;50.10;;;;;;5008659;28;20445;-46
2022/09/02 02:27:40;;;;;;;4.07;3.67;;;23.60;49.90;;;;;;5008922;28;20464;-45
2022/09/02 02:30:07;;;;;;;4.77;4.40;;;23.60;49.70;;;;;;5008012;28;20459;-45
2022/09/02 02:32:33;;;;;;;4.47;4.17;;;23.50;49.90;;;;;;5023849;28;21034;-45
2022/09/02 02:34:59;;;;;;;4.60;4.23;;;23.60;49.80;;;;;;5008723;28;20472;-50
2022/09/02 02:37:25;;;;;;;4.70;4.30;;;23.60;49.30;;;;;;5011871;28;20235;-49
2022/09/02 02:39:51;;;;;;;3.50;3.30;;;23.40;49.90;;;;;;5006310;28;20277;-49
2022/09/02 02:42:16;;;;;;;3.77;3.47;;;23.50;49.80;;;;;;5010545;28;20551;-49
2022/09/02 02:44:42;;;;;;;4.10;3.90;;;23.50;49.70;;;;;;5002725;28;20190;-48
2022/09/02 02:47:08;;;;;;;6.37;4.20;;;23.50;49.40;;;;;;5017891;28;20205;-50
2022/09/02 02:49:39;;;;;;;3.90;3.70;;;23.50;49.70;;;;;;5022038;28;20240;-49
2022/09/02 02:52:05;;;;;;;4.63;3.67;;;23.40;50.00;;;;;;5012543;28;20476;-49
2022/09/02 02:54:31;;;;;;;3.83;3.53;;;23.40;49.70;;;;;;5008287;28;20473;-50
2022/09/02 02:56:57;;;;;;;3.60;3.30;;;23.40;49.40;;;;;;5009955;28;20813;-49
2022/09/02 02:59:23;;;;;;;3.50;3.17;;;23.40;49.90;;;;;;4998944;28;20337;-48
2022/09/02 03:01:49;;;;;;;3.97;3.70;;;23.30;49.80;;;;;;5010019;28;20234;-49
2022/09/02 03:04:15;;;;;;;5.80;3.63;;;23.30;50.00;;;;;;5001043;28;20472;-46
2022/09/02 03:06:40;;;;;;;4.40;4.00;;;23.40;49.40;;;;;;5001350;28;20797;-49
2022/09/02 03:09:06;;;;;;;3.57;3.37;;;23.40;49.80;;;;;;5007608;28;20252;-48
2022/09/02 03:11:32;;;;;;;3.77;3.47;;;23.40;49.50;;;;;;5005373;28;20226;-48
2022/09/02 03:13:58;;;;;;;3.90;3.60;;;23.40;50.00;;;;;;5008481;28;20190;-46
2022/09/02 03:16:23;;;;;;;5.87;3.93;;;23.40;49.30;;;;;;5008079;28;20222;-49
2022/09/02 03:18:49;;;;;;;4.33;3.67;;;23.50;49.20;;;;;;5009167;28;20963;-48
2022/09/02 03:21:16;;;;;;;4.37;3.77;;;23.60;49.00;;;;;;5006279;28;20208;-47
2022/09/02 03:23:43;;;;;;;3.53;3.27;;;23.50;48.90;;;;;;5008946;28;20452;-49
2022/09/02 03:26:11;;;;;;;3.67;3.30;;;23.40;49.50;;;;;;5007634;28;20445;-50
2022/09/02 03:28:38;;;;;;;3.67;3.43;;;23.40;49.20;;;;;;5001281;28;21073;-50
2022/09/02 03:31:05;;;;;;;4.03;3.63;;;23.50;49.20;;;;;;5005073;28;20440;-45
2022/09/02 03:33:31;;;;;;;3.10;2.90;;;23.50;49.00;;;;;;5008851;28;20558;-47
2022/09/02 03:35:57;;;;;;;3.90;3.60;;;23.40;48.90;;;;;;5007168;28;21051;-50
2022/09/02 03:38:23;;;;;;;3.60;3.30;;;23.30;49.00;;;;;;5005402;28;20503;-49
2022/09/02 03:40:48;;;;;;;3.57;3.37;;;23.30;49.00;;;;;;5001922;28;20198;-49
2022/09/02 03:43:14;;;;;;;3.83;3.43;;;23.40;48.80;;;;;;5005740;28;20336;-49
2022/09/02 03:45:40;;;;;;;3.37;3.07;;;23.40;48.90;;;;;;5007401;28;20533;-49
2022/09/02 03:48:06;;;;;;;3.73;3.43;;;23.30;48.90;;;;;;5006254;28;20663;-49
2022/09/02 03:50:38;;;;;;;3.30;3.10;;;23.20;49.00;;;;;;5005942;28;20528;-48
2022/09/02 03:53:05;;;;;;;5.40;3.50;;;23.20;49.20;;;;;;5004884;28;20450;-48
2022/09/02 03:55:31;;;;;;;3.00;2.80;;;23.10;49.60;;;;;;5009168;28;20472;-48
2022/09/02 03:57:57;;;;;;;3.60;3.30;;;23.20;49.20;;;;;;5007853;28;20842;-46
2022/09/02 04:00:27;;;;;;;3.37;3.17;;;23.20;49.30;;;;;;5008530;28;20444;-45
2022/09/02 04:02:54;;;;;;;3.30;3.10;;;23.20;48.80;;;;;;5010480;28;20190;-47
2022/09/02 04:05:21;;;;;;;3.53;3.23;;;23.20;48.80;;;;;;5002777;28;20457;-47
2022/09/02 04:07:51;;;;;;;4.27;3.30;;;23.20;48.60;;;;;;5004026;28;20457;-49
2022/09/02 04:10:17;;;;;;;4.27;3.20;;;23.20;48.00;;;;;;5009111;28;20467;-49
2022/09/02 04:12:43;;;;;;;3.30;3.00;;;23.10;48.30;;;;;;5012469;28;20476;-47
2022/09/02 04:15:10;;;;;;;3.87;3.20;;;23.10;48.60;;;;;;5011056;28;20480;-47
2022/09/02 04:21:16;;;;;;;4.67;3.40;;;23.00;49.30;;;;;;5006891;28;20459;-50
2022/09/02 04:23:42;;;;;;;3.97;3.30;;;23.00;49.00;;;;;;5011723;28;20437;-46
2022/09/02 04:26:11;;;;;;;4.10;3.30;;;23.00;49.00;;;;;;5011576;28;20460;-47
2022/09/02 04:28:37;;;;;;;4.10;3.60;;;23.00;48.90;;;;;;5011734;28;20197;-49
2022/09/02 04:31:09;;;;;;;10.10;3.10;;;23.00;49.00;;;;;;5010408;28;20585;-49
2022/09/02 04:33:35;;;;;;;3.20;3.00;;;23.00;48.90;;;;;;5007847;28;20273;-49
2022/09/02 04:36:04;;;;;;;3.00;2.80;;;22.90;49.40;;;;;;5010086;28;20595;-47
2022/09/02 04:38:30;;;;;;;3.17;2.97;;;23.00;49.30;;;;;;5009637;28;20952;-48
2022/09/02 04:40:57;;;;;;;3.47;3.20;;;23.00;49.00;;;;;;5010147;28;20441;-45
2022/09/02 04:43:22;;;;;;;2.73;2.53;;;22.90;49.00;;;;;;5011428;28;20484;-49
2022/09/02 04:45:48;;;;;;;3.20;3.00;;;22.90;49.20;;;;;;5009672;28;20959;-48
2022/09/02 04:48:14;;;;;;;2.90;2.70;;;23.00;49.10;;;;;;5006536;28;20197;-49
2022/09/02 04:50:40;;;;;;;3.27;3.03;;;23.00;49.00;;;;;;5010720;28;20653;-46
2022/09/02 04:53:07;;;;;;;3.70;3.03;;;23.00;48.90;;;;;;5014094;28;20432;-45
2022/09/02 04:55:34;;;;;;;3.60;3.17;;;23.10;48.90;;;;;;5009098;28;20467;-47
2022/09/02 04:58:00;;;;;;;3.30;3.10;;;23.00;48.70;;;;;;5011420;28;20437;-47
2022/09/02 05:00:26;;;;;;;2.77;2.57;;;22.90;49.10;;;;;;5008291;28;20948;-47
2022/09/02 05:02:52;;;;;;;3.10;2.90;;;23.00;48.80;;;;;;4998194;28;20445;-45
2022/09/02 05:05:18;;;;;;;4.37;3.23;;;22.90;49.00;;;;;;5002288;28;21781;-49
2022/09/02 05:07:44;;;;;;;5.03;3.13;;;22.90;49.30;;;;;;5000951;28;20546;-49
2022/09/02 05:10:11;;;;;;;3.10;2.90;;;23.00;48.60;;;;;;4994650;28;20335;-49
2022/09/02 05:12:39;;;;;;;3.73;3.03;;;22.90;49.00;;;;;;4999431;28;20194;-47
2022/09/02 05:15:07;;;;;;;3.63;3.33;;;23.00;48.50;;;;;;5006606;28;20480;-46
2022/09/02 05:17:34;;;;;;;4.50;4.10;;;23.20;45.90;;;;;;5007066;28;20492;-47
2022/09/02 05:20:00;;;;;;;7.03;3.60;;;23.20;45.40;;;;;;5005496;28;20471;-46
2022/09/02 05:22:28;;;;;;;3.93;3.53;;;23.00;48.10;;;;;;5001478;28;20440;-48
2022/09/02 05:24:54;;;;;;;8.40;2.83;;;23.00;47.40;;;;;;5004073;28;20465;-48
2022/09/02 05:27:20;;;;;;;2.90;2.70;;;22.90;46.80;;;;;;5005318;28;20445;-49
2022/09/02 05:29:46;;;;;;;2.90;2.70;;;22.90;46.30;;;;;;5002377;28;20522;-48
2022/09/02 05:32:11;;;;;;;3.03;2.73;;;22.70;46.50;;;;;;5004564;28;21585;-46
2022/09/02 05:34:37;;;;;;;3.30;3.00;;;22.70;46.60;;;;;;5004994;28;20198;-46
2022/09/02 05:37:04;;;;;;;3.53;3.23;;;22.70;46.40;;;;;;5008145;28;20240;-50
2022/09/02 05:39:30;;;;;;;3.23;2.93;;;22.70;46.40;;;;;;5007507;28;20305;-46
2022/09/02 05:41:56;;;;;;;3.03;2.83;;;22.60;46.50;;;;;;5009255;28;20465;-47
2022/09/02 05:44:22;;;;;;;3.33;3.03;;;22.60;46.50;;;;;;5011252;28;20417;-47
2022/09/02 05:46:47;;;;;;;5.70;2.63;;;22.60;46.80;;;;;;5009497;28;20445;-46
2022/09/02 05:49:16;;;;;;;5.10;3.00;;;22.50;46.90;;;;;;5009861;28;20206;-45
2022/09/02 05:51:51;;;;;;;3.90;2.77;;;22.50;47.10;;;;;;5010302;28;20201;-46
2022/09/02 05:54:29;;;;;;;3.50;3.30;;;22.10;48.60;;;;;;5009553;28;20448;-49
2022/09/02 05:57:00;;;;;;;3.47;3.17;;;22.10;48.00;;;;;;5009743;28;20503;-50
2022/09/02 05:59:28;;;;;;;3.93;3.40;;;22.20;48.00;;;;;;5007241;28;20928;-48
2022/09/02 06:01:54;;;;;;;3.43;3.13;;;22.20;47.70;;;;;;5006852;28;20491;-48
2022/09/02 06:04:21;;;;;;;3.50;3.20;;;22.30;47.90;;;;;;4999340;28;20499;-47
2022/09/02 06:06:48;;;;;;;5.93;3.03;;;22.30;47.80;;;;;;5010053;28;21094;-47
2022/09/02 06:09:16;;;;;;;4.23;2.70;;;22.40;47.90;;;;;;5008496;28;20442;-46
2022/09/02 06:11:44;;;;;;;5.53;3.00;;;22.20;48.10;;;;;;5005959;28;20955;-47
2022/09/02 06:14:12;;;;;;;2.80;2.60;;;22.00;48.30;;;;;;5008612;28;20893;-46
2022/09/02 06:16:39;;;;;;;2.80;2.60;;;22.10;48.60;;;;;;5005546;28;20572;-47
2022/09/02 06:19:06;;;;;;;3.83;2.93;;;22.10;48.40;;;;;;5007589;28;20471;-46
2022/09/02 06:21:32;;;;;;;3.87;2.80;;;22.00;48.70;;;;;;5009196;28;20513;-46
2022/09/02 06:23:59;;;;;;;2.80;2.60;;;22.00;48.60;;;;;;5008114;28;20968;-48
2022/09/02 06:26:25;;;;;;;3.07;2.77;;;22.00;48.60;;;;;;5004662;28;20452;-46
2022/09/02 06:28:51;;;;;;;5.67;2.90;;;22.00;48.80;;;;;;5008040;28;20448;-52
2022/09/02 06:31:22;;;;;;;3.57;2.97;;;22.00;48.60;;;;;;5021996;28;20423;-47
2022/09/02 06:33:51;;;;;;;3.27;3.00;;;22.00;48.70;;;;;;5006562;28;20202;-46
2022/09/02 06:36:18;;;;;;;3.23;3.00;;;21.90;48.90;;;;;;5004504;28;20509;-47
2022/09/02 06:38:47;;;;;;;3.17;2.90;;;21.70;49.50;;;;;;5010746;28;20465;-48
2022/09/02 06:41:16;;;;;;;6.77;2.20;;;21.80;49.60;;;;;;4997798;28;20450;-47
2022/09/02 06:43:42;;;;;;;9.73;2.60;;;21.90;50.30;;;;;;5003220;28;20471;-47
2022/09/02 06:46:13;;;;;;;14.87;3.00;;;22.10;50.70;;;;;;5014012;28;20515;-46
2022/09/02 06:48:39;;;;;;;10.43;3.47;;;22.50;50.40;;;;;;5004377;28;20212;-47
2022/09/02 06:51:04;;;;;;;16.27;3.80;;;22.90;49.60;;;;;;5006251;28;20449;-48
2022/09/02 06:53:30;;;;;;;11.70;4.30;;;23.10;49.40;;;;;;4998021;28;20198;-48
2022/09/02 06:55:55;;;;;;;9.87;3.07;;;22.90;47.90;;;;;;5000476;28;20234;-47
2022/09/02 06:58:21;;;;;;;7.17;3.77;;;22.80;48.60;;;;;;5001016;28;20281;-47
2022/09/02 07:00:47;;;;;;;12.47;3.27;;;22.90;48.90;;;;;;5002387;28;20768;-46
2022/09/02 07:06:08;;;;;;;4.20;3.27;;;23.30;46.80;;;;;;5007626;28;20576;-48
2022/09/02 07:08:38;;;;;;;5.70;2.87;;;22.90;46.90;;;;;;5002408;28;20487;-49
2022/09/02 07:11:05;;;;;;;3.03;2.53;;;22.70;48.50;;;;;;4999691;28;20453;-47
2022/09/02 07:13:31;;;;;;;3.30;3.00;;;23.00;47.80;;;;;;4997728;28;20445;-47
2022/09/02 07:15:57;;;;;;;2.40;2.27;;;23.20;47.30;;;;;;5004847;28;20550;-46
2022/09/02 07:18:23;;;;;;;3.80;2.43;;;23.10;47.50;;;;;;5005133;28;20441;-48
2022/09/02 07:20:48;;;;;;;2.90;2.70;;;23.20;47.60;;;;;;5005897;28;20282;-46
2022/09/02 07:23:15;;;;;;;2.60;2.40;;;22.90;47.40;;;;;;5004435;28;20278;-46
2022/09/02 07:25:41;;;;;;;2.70;2.40;;;22.80;48.40;;;;;;5004903;28;20193;-46
2022/09/02 07:28:07;;;;;;;3.73;2.10;;;23.00;48.10;;;;;;5008669;28;20444;-46
2022/09/02 07:30:34;;;;;;;3.17;2.87;;;22.90;48.20;;;;;;5010407;28;20204;-46
2022/09/02 07:33:00;;;;;;;2.70;2.50;;;23.10;48.50;;;;;;5010326;28;20455;-47
2022/09/02 07:35:26;;;;;;;2.93;2.70;;;23.30;47.80;;;;;;5002880;28;20440;-46
2022/09/02 07:37:52;;;;;;;4.73;2.73;;;23.30;47.60;;;;;;5009873;28;20444;-47
2022/09/02 07:40:17;;;;;;;2.40;2.20;;;23.20;48.10;;;;;;5010928;28;20440;-46
2022/09/02 07:42:43;;;;;;;3.10;2.80;;;23.10;48.20;;;;;;5006155;28;20791;-49
2022/09/02 07:45:10;;;;;;;3.50;2.30;;;23.40;47.60;;;;;;5010750;28;20662;-46
2022/09/02 07:47:36;;;;;;;4.10;2.73;;;23.60;47.40;;;;;;5005180;28;20583;-47
2022/09/02 07:50:03;;;;;;;2.60;2.40;;;23.80;47.20;;;;;;5004616;28;20445;-49
2022/09/02 07:52:29;;;;;;;2.97;2.40;;;24.00;46.90;;;;;;5004293;28;20260;-46
2022/09/02 07:54:55;;;;;;;2.93;2.63;;;24.00;46.70;;;;;;5008893;28;20444;-46
2022/09/02 07:57:20;;;;;;;2.27;2.07;;;24.30;46.60;;;;;;5010359;28;20217;-48
2022/09/02 07:59:46;;;;;;;3.57;2.83;;;24.10;46.50;;;;;;4999404;28;20290;-46
2022/09/02 08:02:13;;;;;;;2.70;2.50;;;24.00;46.60;;;;;;5006654;28;20241;-48
2022/09/02 08:04:39;;;;;;;3.23;2.50;;;24.30;46.30;;;;;;5010836;28;20264;-48
2022/09/02 08:07:05;;;;;;;3.23;2.70;;;24.50;46.40;;;;;;5010150;28;20447;-48
2022/09/02 08:09:31;;;;;;;2.60;2.40;;;24.40;46.00;;;;;;5021721;28;20473;-50
2022/09/02 08:11:57;;;;;;;2.33;2.13;;;24.30;46.30;;;;;;5012200;28;20276;-48
2022/09/02 08:14:26;;;;;;;2.60;2.40;;;24.60;45.60;;;;;;5018030;28;20205;-48
2022/09/02 08:16:52;;;;;;;2.50;2.07;;;24.70;45.70;;;;;;5015533;28;20680;-49
2022/09/02 08:19:18;;;;;;;2.10;2.00;;;24.40;45.40;;;;;;5008952;28;20534;-48
2022/09/02 08:21:44;;;;;;;2.87;2.60;;;24.20;45.90;;;;;;5008913;28;20452;-50
2022/09/02 08:24:10;;;;;;;2.50;2.30;;;24.50;45.80;;;;;;5005537;28;20888;-48
2022/09/02 08:26:36;;;;;;;4.20;2.80;;;24.70;45.60;;;;;;5007661;28;20198;-47
2022/09/02 08:29:04;;;;;;;2.60;2.40;;;24.90;44.10;;;;;;5003171;28;20194;-50
2022/09/02 08:31:30;;;;;;;4.40;2.00;;;24.70;44.90;;;;;;5009710;28;20456;-48
2022/09/02 08:33:59;;;;;;;2.80;2.03;;;24.60;44.80;;;;;;5012382;28;20978;-50
2022/09/02 08:36:26;;;;;;;3.50;2.20;;;24.70;44.60;;;;;;5012804;28;20560;-48
2022/09/02 08:38:52;;;;;;;2.13;1.93;;;24.90;44.40;;;;;;5023903;28;20560;-49
2022/09/02 08:41:27;;;;;;;1.90;1.80;;;25.10;44.50;;;;;;5011174;28;20437;-50
2022/09/02 08:43:58;;;;;;;1.93;1.83;;;25.10;43.70;;;;;;5010633;28;20515;-48
2022/09/02 08:46:26;;;;;;;4.63;1.90;;;25.10;43.40;;;;;;5002616;28;20530;-49
2022/09/02 08:48:56;;;;;;;2.60;2.00;;;25.00;43.80;;;;;;5008561;28;20460;-46
2022/09/02 08:51:31;;;;;;;3.80;2.10;;;25.00;43.40;;;;;;5007282;28;20441;-46
2022/09/02 08:54:13;;;;;;;3.17;1.87;;;25.20;43.10;;;;;;5004198;28;20506;-47
2022/09/02 08:56:40;;;;;;;1.87;1.73;;;25.40;42.90;;;;;;4998597;28;20492;-48
2022/09/02 08:59:08;;;;;;;2.17;1.97;;;25.70;42.90;;;;;;4994953;28;22361;-48
2022/09/02 09:01:52;;;;;;;1.60;1.50;;;25.90;42.20;;;;;;5004790;28;20487;-46
2022/09/02 09:05:14;;;;;;;4.90;1.90;;;26.00;41.20;;;;;;5003642;28;21053;-46
2022/09/02 09:07:56;;;;;;;1.70;1.60;;;26.20;41.40;;;;;;4962908;28;20476;-49
2022/09/02 09:10:40;;;;;;;2.47;1.80;;;26.20;40.20;;;;;;5002389;28;20449;-46
2022/09/02 09:13:43;;;;;;;1.87;1.77;;;26.40;39.80;;;;;;5008590;28;20445;-46
2022/09/02 09:16:09;;;;;;;3.13;2.03;;;26.40;39.80;;;;;;4995119;28;20516;-49
2022/09/02 09:18:40;;;;;;;1.80;1.53;;;26.50;39.40;;;;;;4999868;28;20503;-48
2022/09/02 09:21:07;;;;;;;1.97;1.87;;;26.50;39.50;;;;;;5002887;28;20323;-50
2022/09/02 09:23:37;;;;;;;5.43;2.07;;;26.70;39.40;;;;;;5006410;28;20453;-50
2022/09/02 09:26:19;;;;;;;2.40;1.70;;;26.80;38.90;;;;;;4997803;28;20457;-46
2022/09/02 09:28:49;;;;;;;1.83;1.70;;;26.90;38.20;;;;;;5008675;28;20456;-51
2022/09/02 09:31:28;;;;;;;2.20;1.23;;;27.10;37.80;;;;;;5009697;28;20484;-48
2022/09/02 09:34:05;;;;;;;1.97;1.60;;;27.20;37.70;;;;;;5009183;28;20459;-50
2022/09/02 09:36:39;;;;;;;2.63;1.60;;;26.90;38.40;;;;;;5008209;28;21004;-46
2022/09/02 09:39:24;;;;;;;1.70;1.60;;;27.00;37.90;;;;;;5007465;28;20456;-47
2022/09/02 09:41:52;;;;;;;1.40;1.30;;;27.10;35.80;;;;;;5002578;28;20872;-51
2022/09/02 09:44:46;;;;;;;1.50;1.40;;;27.10;36.20;;;;;;5003423;28;20912;-47
2022/09/02 09:47:22;;;;;;;1.57;1.37;;;26.80;36.20;;;;;;5001094;28;20465;-47
2022/09/02 09:50:17;;;;;;;2.00;1.30;;;27.00;35.10;;;;;;4995353;28;20454;-46
2022/09/02 09:52:44;;;;;;;1.80;1.63;;;27.00;36.20;;;;;;4996259;28;20968;-46
2022/09/02 09:55:10;;;;;;;1.87;1.70;;;26.90;35.50;;;;;;5012616;28;20939;-50
2022/09/02 09:57:37;;;;;;;2.97;1.50;;;27.30;34.90;;;;;;5007121;28;20493;-47
2022/09/02 10:00:27;;;;;;;2.80;1.60;;;27.60;34.10;;;;;;5008144;28;20448;-47
2022/09/02 10:02:59;;;;;;;1.50;1.40;;;28.00;33.80;;;;;;4997004;28;20457;-50
2022/09/02 10:05:28;;;;;;;1.60;1.50;;;28.30;33.50;;;;;;5001842;28;20539;-47
2022/09/02 10:08:00;;;;;;;2.43;1.40;;;28.20;32.70;;;;;;5004384;28;20460;-46
2022/09/02 10:10:28;;;;;;;2.00;1.77;;;28.20;33.30;;;;;;5008105;28;20532;-45
2022/09/02 10:12:57;;;;;;;1.30;1.20;;;28.10;32.20;;;;;;4999874;28;20536;-45
2022/09/02 10:15:48;;;;;;;2.50;1.40;;;28.20;32.80;;;;;;5008262;28;20536;-45
2022/09/02 10:18:47;;;;;;;2.20;1.37;;;27.90;31.90;;;;;;5005482;28;20534;-46
2022/09/02 10:21:40;;;;;;;1.40;1.30;;;27.90;32.70;;;;;;5007583;28;21069;-48
2022/09/02 10:24:35;;;;;;;1.70;1.30;;;28.40;31.90;;;;;;5000372;28;20555;-50
2022/09/02 10:27:07;;;;;;;1.30;1.20;;;28.50;30.80;;;;;;5006102;28;20822;-48
2022/09/02 10:29:58;;;;;;;1.50;1.40;;;28.30;29.10;;;;;;4998535;28;20880;-51
2022/09/02 10:32:49;;;;;;;2.50;1.50;;;27.60;30.40;;;;;;5000738;28;20456;-51
2022/09/02 10:35:20;;;;;;;0.90;0.90;;;26.90;30.90;;;;;;5000853;28;20472;-47
2022/09/02 10:37:57;;;;;;;1.70;1.60;;;27.40;31.50;;;;;;5001866;28;20488;-51
2022/09/02 10:40:32;;;;;;;1.63;1.53;;;27.50;31.30;;;;;;5002105;28;20895;-50
2022/09/02 10:43:05;;;;;;;3.00;1.67;;;27.80;31.60;;;;;;5005119;28;20487;-48
2022/09/02 10:45:49;;;;;;;1.87;1.67;;;28.10;31.90;;;;;;5008439;28;20448;-49
2022/09/02 10:48:36;;;;;;;2.53;1.77;;;28.80;30.80;;;;;;5009429;28;20804;-49
2022/09/02 10:51:20;;;;;;;2.90;1.67;;;29.10;30.70;;;;;;5003782;28;20448;-49
2022/09/02 10:54:17;;;;;;;1.77;1.67;;;29.20;29.90;;;;;;5007640;28;20452;-47
2022/09/02 10:56:58;;;;;;;2.50;1.40;;;29.20;29.30;;;;;;5003959;28;20987;-48
2022/09/02 10:59:32;;;;;;;2.33;1.70;;;29.20;29.70;;;;;;5005692;28;20444;-49
2022/09/02 11:02:30;;;;;;;1.83;1.70;;;29.40;29.60;;;;;;5012876;28;20444;-50
2022/09/02 11:05:04;;;;;;;2.17;1.60;;;28.90;28.90;;;;;;4989254;28;20457;-47
2022/09/02 11:07:42;;;;;;;1.60;1.50;;;28.60;29.70;;;;;;5012852;28;20479;-49
2022/09/02 11:10:16;;;;;;;2.60;1.40;;;28.50;29.40;;;;;;5010050;28;20464;-50
2022/09/02 11:13:10;;;;;;;1.70;1.60;;;28.90;30.10;;;;;;5012296;28;20455;-48
2022/09/02 11:15:58;;;;;;;1.30;1.20;;;29.60;29.10;;;;;;5006807;28;20449;-47
2022/09/02 11:19:01;;;;;;;4.63;1.47;;;29.90;28.40;;;;;;5012855;28;20885;-46
2022/09/02 11:21:48;;;;;;;1.60;1.50;;;30.30;28.50;;;;;;5010369;28;20514;-47
2022/09/02 11:24:41;;;;;;;1.73;1.20;;;30.30;28.40;;;;;;5008371;28;20539;-45
2022/09/02 11:27:10;;;;;;;2.00;1.40;;;30.30;28.60;;;;;;5010870;28;20471;-45
2022/09/02 11:29:35;;;;;;;2.10;1.50;;;30.30;28.40;;;;;;5003537;28;20874;-46
2022/09/02 11:32:26;;;;;;;2.13;1.23;;;30.60;27.90;;;;;;5000759;28;20473;-47
2022/09/02 11:34:57;;;;;;;5.13;2.10;;;30.70;27.70;;;;;;5011311;28;20583;-49
2022/09/02 11:37:25;;;;;;;2.23;1.47;;;31.00;27.50;;;;;;5011402;28;20496;-46
2022/09/02 11:39:58;;;;;;;1.33;1.23;;;30.40;27.30;;;;;;5004992;28;20453;-49
2022/09/02 11:42:34;;;;;;;1.87;1.77;;;30.40;28.30;;;;;;5013610;28;20840;-49
2022/09/02 11:45:07;;;;;;;1.43;1.37;;;30.50;27.80;;;;;;5007968;28;20444;-47
2022/09/02 11:47:35;;;;;;;1.40;1.30;;;31.00;27.60;;;;;;5024833;28;20451;-48
2022/09/02 11:50:34;;;;;;;1.83;1.17;;;31.10;26.70;;;;;;5010630;28;20496;-48
2022/09/02 11:53:00;;;;;;;2.27;1.50;;;31.10;27.00;;;;;;5010387;28;20471;-49
2022/09/02 11:55:34;;;;;;;1.33;1.23;;;31.20;26.70;;;;;;5008314;28;20449;-49
2022/09/02 11:58:01;;;;;;;1.90;1.40;;;30.70;27.50;;;;;;5014392;28;20251;-47
2022/09/02 12:00:31;;;;;;;1.47;1.17;;;30.80;27.60;;;;;;5008539;28;20495;-49
2022/09/02 12:03:05;;;;;;;1.53;1.43;;;30.90;27.10;;;;;;5009136;28;20535;-47
2022/09/02 12:05:31;;;;;;;1.33;1.20;;;30.90;27.40;;;;;;5010118;28;20471;-49
2022/09/02 12:08:04;;;;;;;1.10;1.10;;;31.10;27.00;;;;;;5017319;28;20864;-46
2022/09/02 12:10:42;;;;;;;1.50;1.40;;;31.40;26.40;;;;;;5001990;28;20201;-48
2022/09/02 12:13:11;;;;;;;4.63;1.27;;;31.60;27.00;;;;;;5000580;28;20460;-49
2022/09/02 12:15:39;;;;;;;1.83;1.30;;;31.70;27.10;;;;;;4997557;28;20986;-46
2022/09/02 12:18:27;;;;;;;1.67;1.57;;;31.90;26.40;;;;;;5005592;28;20453;-55
2022/09/02 12:20:58;;;;;;;1.30;1.10;;;31.60;26.80;;;;;;5000637;28;20472;-50
2022/09/02 12:23:55;;;;;;;1.60;1.50;;;31.60;26.80;;;;;;5009044;28;20472;-48
2022/09/02 12:26:50;;;;;;;1.50;1.40;;;31.50;26.90;;;;;;5001055;28;20532;-50
2022/09/02 12:29:18;;;;;;;1.83;1.60;;;31.50;26.80;;;;;;5004087;28;20461;-50
2022/09/02 12:31:46;;;;;;;2.40;1.40;;;31.60;27.10;;;;;;5005352;28;20436;-49
2022/09/02 12:34:23;;;;;;;3.00;1.40;;;31.80;26.40;;;;;;5011376;28;20444;-51
2022/09/02 12:36:53;;;;;;;1.50;1.40;;;31.80;27.20;;;;;;5010422;28;20491;-49
2022/09/02 12:39:22;;;;;;;2.17;1.23;;;31.00;26.70;;;;;;5007123;28;20878;-48
2022/09/02 12:41:54;;;;;;;1.30;1.20;;;30.90;27.60;;;;;;5007034;28;20460;-50
2022/09/02 12:44:35;;;;;;;2.10;1.53;;;31.10;26.90;;;;;;5010783;28;20813;-50
2022/09/02 12:47:07;;;;;;;1.90;1.30;;;31.30;27.10;;;;;;5009920;28;20978;-49
2022/09/02 12:49:47;;;;;;;1.40;1.30;;;31.50;26.30;;;;;;5011459;28;20888;-49
2022/09/02 12:52:32;;;;;;;2.13;1.30;;;32.00;26.20;;;;;;5021856;28;20464;-49
2022/09/02 12:55:22;;;;;;;1.50;1.40;;;32.10;26.80;;;;;;4994043;28;20445;-50
2022/09/02 12:57:50;;;;;;;2.03;1.83;;;32.10;27.00;;;;;;5005474;28;20502;-46
2022/09/02 13:00:45;;;;;;;2.03;1.67;;;32.00;27.00;;;;;;5005655;28;20453;-46
2022/09/02 13:03:26;;;;;;;1.50;1.40;;;32.00;26.40;;;;;;4986417;28;20444;-49
2022/09/02 13:06:12;;;;;;;2.00;1.37;;;32.30;26.50;;;;;;5004101;28;20507;-47
2022/09/02 13:09:14;;;;;;;1.20;1.10;;;32.50;26.10;;;;;;5003613;28;20484;-46
2022/09/02 13:11:59;;;;;;;1.83;1.40;;;32.70;26.10;;;;;;5009721;28;20492;-50